Kulob Airport
UTDK : now visible

Airfield :











YOU CAN JOIN US ON...

 
LOGIN :

Register | Disclaimer

   EN    FR    IT 

 









Legend :    VFR   Marginal VFR   IFR   Intensive IFR   Very Intensive IFR
Visi :
Ceiling :
>= 8 km
>= 3000ft
5 to 8 km
1000 to 3000 ft
1500m to 5 km
500 to 1000 ft
800 to 1500m
200 to 500 ft
< 800m
< 200 ft
Symbols :   Thunderstorms  Fog  Heavy snow  Heavy precipitations  Wind > 20 kt







- Airport Elevation : 2293 ft
- IATA code : TJU


UTDK - Kulob

CURRENT METAR :
  • 230530Z 22003MPS 180V250 9999 NSC 36/12 Q1005 R01/09//70 RMK QFE697/0929

EXPIRED METARs :
  • 230500Z VRB02MPS 9999 NSC 37/09 Q1006 R01/09//70 RMK QFE697/0930
  • 230430Z VRB01MPS 9999 NSC 36/08 Q1006 R01/09//70 RMK QFE697/0930
  • 230400Z VRB01MPS 9999 NSC 36/09 Q1006 R01/09//70 RMK QFE697/0930
  • 230330Z 01003MPS 9999 NSC 34/10 Q1006 R01/09//70 RMK QFE697/0930
  • 230300Z 02005MPS 9999 NSC 32/10 Q1006 R01/09//70 RMK QFE697/0930

TAF TAF UTDK
Valid from the 23 at 04:00 until the 23 at 13:00 UTC


230300Z 2304/2313 VRB02MPS 6000 FEW066 SCT130
TEMPO 2306/2313 21006MPS
UTDD FIR / Asia



MET'MAP, your aeronautical weather chart ! - Copyright ORBIFLY December 2007 - Disclaimer

ORBIFLY MET'MAP TEAM :

Programming & Development : Alexandra Zaïnal
Concept & Development : Baudouin d'Aumeries
Co-Development & Prog : Marc-Olivier Méhu
Technical & hardware support : Manuel Goepfert

Contact : metmap@orbifly.com




SOURCES & CREDITS :

   NOAA       Earth
Advisory